Time;durP1;ratioP1;P1;durP2;ratioP2;P2;SDS_P1;SDS_P2;PMS_P1;PMS_P2;Temp;Humidity;BMP_temperature;BMP_pressure;BME280_temperature;BME280_humidity;BME280_pressure;Samples;Min_cycle;Max_cycle;Signal;HPM_P1;HPM_P2
2022/06/14 00:03:04;;;;;;;9.60;4.33;;;16.50;99.90;;;;;;5099185;28;20415;-82
2022/06/14 00:05:31;;;;;;;9.40;5.03;;;16.40;99.90;;;;;;5099955;28;20407;-83
2022/06/14 00:07:58;;;;;;;7.10;4.87;;;16.40;99.90;;;;;;5088587;28;20433;-83
2022/06/14 00:10:26;;;;;;;6.10;4.17;;;16.40;99.90;;;;;;5087440;28;20472;-83
2022/06/14 00:12:53;;;;;;;11.13;4.00;;;16.50;99.90;;;;;;5087990;28;20451;-83
2022/06/14 00:15:20;;;;;;;6.80;4.60;;;16.50;99.90;;;;;;5089227;28;20454;-82
2022/06/14 00:17:47;;;;;;;7.10;4.40;;;16.50;99.90;;;;;;5085024;28;20418;-83
2022/06/14 00:20:14;;;;;;;10.30;4.50;;;16.50;99.90;;;;;;5083963;28;20529;-83
2022/06/14 00:22:41;;;;;;;5.60;3.50;;;16.60;99.90;;;;;;5085846;28;20516;-82
2022/06/14 00:25:15;;;;;;;11.10;4.40;;;16.50;99.90;;;;;;5086390;28;20480;-84
2022/06/14 00:27:43;;;;;;;10.70;4.10;;;16.30;99.90;;;;;;5086200;28;20432;-84
2022/06/14 00:30:11;;;;;;;11.57;4.90;;;16.20;99.90;;;;;;5087981;28;20475;-84
2022/06/14 00:32:37;;;;;;;9.83;4.30;;;16.20;99.90;;;;;;5091125;28;20502;-84
2022/06/14 00:35:05;;;;;;;11.83;4.60;;;16.30;99.90;;;;;;5096528;28;20527;-84
2022/06/14 00:37:32;;;;;;;6.80;4.33;;;16.30;99.90;;;;;;5099680;28;20414;-83
2022/06/14 00:39:58;;;;;;;7.20;3.80;;;16.20;99.90;;;;;;5099011;28;20464;-80
2022/06/14 00:42:25;;;;;;;7.17;4.00;;;16.20;99.90;;;;;;5100802;28;20478;-82
2022/06/14 00:45:10;;;;;;;8.23;4.13;;;16.20;99.90;;;;;;5100154;28;20476;-83
2022/06/14 00:47:40;;;;;;;7.67;3.63;;;16.20;99.90;;;;;;5097855;28;20407;-83
2022/06/14 00:50:15;;;;;;;9.20;4.90;;;16.10;99.90;;;;;;5092157;28;20514;-84
2022/06/14 00:52:46;;;;;;;8.20;4.60;;;16.10;99.90;;;;;;5088567;28;20411;-84
2022/06/14 00:55:16;;;;;;;7.60;4.43;;;16.10;99.90;;;;;;5088217;28;20519;-83
2022/06/14 00:57:49;;;;;;;6.30;4.40;;;16.00;99.90;;;;;;5087800;28;20520;-83
2022/06/14 01:00:21;;;;;;;8.53;4.10;;;16.00;99.90;;;;;;5086968;28;20506;-83
2022/06/14 01:02:53;;;;;;;10.87;4.30;;;15.90;99.90;;;;;;5091305;28;20494;-83
2022/06/14 01:05:26;;;;;;;8.10;4.27;;;15.80;99.90;;;;;;5092994;28;20437;-83
2022/06/14 01:07:57;;;;;;;9.40;4.53;;;15.80;99.90;;;;;;5087623;28;20511;-84
2022/06/14 01:10:29;;;;;;;11.20;4.90;;;15.70;99.90;;;;;;5087977;28;20506;-83
2022/06/14 01:13:01;;;;;;;7.53;4.70;;;15.70;99.90;;;;;;5088179;28;20470;-84
2022/06/14 01:15:32;;;;;;;8.83;4.70;;;15.80;99.90;;;;;;5088886;28;20410;-83
2022/06/14 01:18:04;;;;;;;8.23;4.60;;;15.80;99.90;;;;;;5090695;28;20793;-84
2022/06/14 01:20:32;;;;;;;6.20;4.30;;;15.70;99.90;;;;;;5093399;28;20464;-83
2022/06/14 01:23:01;;;;;;;7.83;4.50;;;15.60;99.90;;;;;;5094270;28;20445;-83
2022/06/14 01:25:31;;;;;;;7.83;4.17;;;15.50;99.90;;;;;;5088345;28;20884;-83
2022/06/14 01:28:01;;;;;;;12.27;4.47;;;15.50;99.90;;;;;;5087961;28;20446;-83
2022/06/14 01:30:31;;;;;;;7.50;4.77;;;15.50;99.90;;;;;;5098207;28;20469;-80
2022/06/14 01:33:03;;;;;;;7.73;4.70;;;15.50;99.90;;;;;;5094788;28;20461;-84
2022/06/14 01:35:35;;;;;;;9.70;4.60;;;15.60;99.90;;;;;;5089634;28;20432;-83
2022/06/14 01:38:06;;;;;;;7.63;5.03;;;15.70;99.90;;;;;;5090159;28;20455;-83
2022/06/14 01:40:47;;;;;;;6.37;4.07;;;15.60;99.90;;;;;;5087724;28;20468;-83
2022/06/14 01:43:30;;;;;;;6.60;4.50;;;15.40;99.90;;;;;;5098577;28;20399;-82
2022/06/14 01:46:03;;;;;;;5.37;3.80;;;15.40;99.90;;;;;;5097897;28;20486;-81
2022/06/14 01:48:33;;;;;;;7.20;5.27;;;15.40;99.90;;;;;;5084295;28;20415;-81
2022/06/14 01:54:08;;;;;;;6.77;4.97;;;15.40;99.90;;;;;;5082637;28;20394;-82
2022/06/14 01:56:42;;;;;;;9.37;4.90;;;15.30;99.90;;;;;;5082098;28;20519;-83
2022/06/14 01:59:16;;;;;;;8.00;4.90;;;15.20;99.90;;;;;;5080245;28;20414;-81
2022/06/14 02:01:53;;;;;;;11.53;5.47;;;15.10;99.90;;;;;;5089086;28;20413;-84
2022/06/14 02:04:39;;;;;;;6.40;4.63;;;15.10;99.90;;;;;;5086074;28;20475;-84
2022/06/14 02:07:15;;;;;;;8.33;5.27;;;15.00;99.90;;;;;;5088260;28;20459;-84
2022/06/14 02:09:54;;;;;;;7.33;4.70;;;15.00;99.90;;;;;;5091969;28;20445;-84
2022/06/14 02:12:30;;;;;;;8.63;4.77;;;15.00;99.90;;;;;;5089671;28;20439;-82
2022/06/14 02:15:03;;;;;;;10.00;4.90;;;15.00;99.90;;;;;;5086389;28;20428;-84
2022/06/14 02:17:35;;;;;;;9.43;4.70;;;14.90;99.90;;;;;;5085438;28;20933;-84
2022/06/14 02:20:07;;;;;;;8.60;5.07;;;14.90;99.90;;;;;;5090414;28;20491;-82
2022/06/14 02:22:36;;;;;;;6.17;4.70;;;14.90;99.90;;;;;;5097744;28;20403;-82
2022/06/14 02:25:10;;;;;;;7.83;4.80;;;14.90;99.90;;;;;;5093365;28;20474;-84
2022/06/14 02:27:45;;;;;;;8.33;4.57;;;14.90;99.90;;;;;;5079128;28;20407;-83
2022/06/14 02:30:16;;;;;;;7.90;4.80;;;14.90;99.90;;;;;;5081199;28;20449;-82
2022/06/14 02:32:49;;;;;;;8.67;5.27;;;14.80;99.90;;;;;;5088306;28;20468;-83
2022/06/14 02:35:21;;;;;;;7.77;5.10;;;14.80;99.90;;;;;;5087010;28;20483;-83
2022/06/14 02:37:53;;;;;;;8.90;5.43;;;14.80;99.90;;;;;;5085493;28;20413;-83
2022/06/14 02:40:25;;;;;;;8.53;4.67;;;14.70;99.90;;;;;;5083553;28;20537;-84
2022/06/14 02:42:59;;;;;;;9.30;4.60;;;14.70;99.90;;;;;;5083889;28;20440;-83
2022/06/14 02:45:31;;;;;;;7.67;4.97;;;14.60;99.90;;;;;;5084697;28;20501;-83
2022/06/14 02:48:06;;;;;;;7.40;4.60;;;14.60;99.90;;;;;;5084157;28;20985;-84
2022/06/14 02:50:40;;;;;;;8.57;5.20;;;14.60;99.90;;;;;;5097052;28;20446;-82
2022/06/14 02:53:14;;;;;;;7.43;5.00;;;14.60;99.90;;;;;;5097585;28;20469;-83
2022/06/14 02:55:48;;;;;;;5.37;3.93;;;14.60;99.90;;;;;;5096610;28;20448;-84
2022/06/14 02:58:30;;;;;;;9.00;5.47;;;14.70;99.90;;;;;;5087508;28;20809;-84
2022/06/14 03:00:59;;;;;;;9.60;5.40;;;14.60;99.90;;;;;;5085810;28;20498;-83
2022/06/14 03:03:32;;;;;;;7.10;5.23;;;14.50;99.90;;;;;;5085090;28;20756;-84
2022/06/14 03:06:06;;;;;;;6.30;4.27;;;14.50;99.90;;;;;;5085880;28;20874;-84
2022/06/14 03:08:43;;;;;;;9.33;5.50;;;14.50;99.90;;;;;;5085986;28;20406;-83
2022/06/14 03:11:18;;;;;;;9.30;5.43;;;14.50;99.90;;;;;;5086048;28;20472;-84
2022/06/14 03:13:55;;;;;;;8.37;5.50;;;14.50;99.90;;;;;;5085523;28;20480;-84
2022/06/14 03:16:30;;;;;;;7.07;4.97;;;14.50;99.90;;;;;;5088896;28;20410;-83
2022/06/14 03:19:02;;;;;;;7.80;5.17;;;14.30;99.90;;;;;;5085542;28;20410;-82
2022/06/14 03:21:35;;;;;;;10.27;5.00;;;14.30;99.90;;;;;;5084272;28;20503;-83
2022/06/14 03:24:10;;;;;;;11.53;5.77;;;14.30;99.90;;;;;;5083441;28;20432;-83
2022/06/14 03:26:54;;;;;;;9.00;6.00;;;14.40;99.90;;;;;;5084047;28;20403;-83
2022/06/14 03:29:29;;;;;;;8.47;5.03;;;14.40;99.90;;;;;;5086738;28;20507;-84
2022/06/14 03:32:03;;;;;;;9.47;5.73;;;14.20;99.90;;;;;;5087468;28;20539;-84
2022/06/14 03:34:33;;;;;;;9.00;5.17;;;14.20;99.90;;;;;;5085300;28;20456;-84
2022/06/14 03:37:00;;;;;;;12.03;6.23;;;14.20;99.90;;;;;;5084773;28;20444;-84
2022/06/14 03:39:32;;;;;;;7.93;5.60;;;14.20;99.90;;;;;;5083866;28;20491;-84
2022/06/14 03:42:04;;;;;;;10.67;5.50;;;14.20;99.90;;;;;;5083969;28;20881;-84
2022/06/14 03:44:32;;;;;;;10.00;5.30;;;14.30;99.90;;;;;;5083837;28;20875;-84
2022/06/14 03:47:20;;;;;;;9.27;5.20;;;14.30;99.90;;;;;;5085876;28;20534;-84
2022/06/14 03:49:49;;;;;;;6.93;5.30;;;14.30;99.90;;;;;;5082756;28;20486;-83
2022/06/14 03:53:25;;;;;;;10.10;6.13;;;14.20;99.90;;;;;;5342321;22;20586;-87
2022/06/14 05:10:11;;;;;;;8.70;5.70;;;15.10;99.90;;;;;;5107670;22;20496;-88
2022/06/14 05:12:52;;;;;;;8.17;5.57;;;15.30;99.90;;;;;;5072274;28;20515;-87
2022/06/14 05:15:23;;;;;;;11.40;9.00;;;15.40;99.90;;;;;;5069577;28;20416;-87
2022/06/14 05:17:57;;;;;;;9.97;6.10;;;15.50;99.90;;;;;;5067426;28;20448;-88
2022/06/14 05:20:31;;;;;;;11.70;6.17;;;15.50;99.90;;;;;;5068396;28;20445;-89
2022/06/14 05:23:04;;;;;;;9.90;5.60;;;15.60;99.90;;;;;;5065906;28;20439;-88
2022/06/14 05:25:41;;;;;;;7.90;6.00;;;15.70;99.90;;;;;;5064758;28;20529;-88
2022/06/14 05:28:14;;;;;;;8.37;6.50;;;15.80;99.90;;;;;;5063248;28;20437;-88
2022/06/14 05:30:50;;;;;;;10.07;6.27;;;15.90;99.90;;;;;;5064168;28;20440;-88
2022/06/14 05:33:32;;;;;;;8.80;6.70;;;16.10;99.90;;;;;;5069778;28;20457;-86
2022/06/14 05:36:04;;;;;;;18.83;6.80;;;16.10;99.90;;;;;;5071451;28;20441;-86
2022/06/14 05:38:38;;;;;;;10.27;7.13;;;16.20;99.90;;;;;;5065771;28;20433;-87
2022/06/14 05:41:12;;;;;;;12.90;6.83;;;16.30;99.90;;;;;;5066555;28;20473;-88
2022/06/14 05:43:44;;;;;;;11.63;6.60;;;16.30;99.90;;;;;;5065166;28;20412;-87
2022/06/14 05:46:17;;;;;;;13.03;6.40;;;16.40;99.90;;;;;;5065472;28;20448;-87
2022/06/14 05:48:51;;;;;;;13.07;7.43;;;16.60;99.90;;;;;;5064919;28;20425;-87
2022/06/14 05:51:21;;;;;;;11.00;6.63;;;16.70;99.90;;;;;;5062858;28;20468;-87
2022/06/14 05:53:56;;;;;;;10.80;7.10;;;16.80;99.90;;;;;;5072880;28;20580;-86
2022/06/14 05:56:31;;;;;;;16.47;8.77;;;16.80;99.90;;;;;;5070438;28;20467;-87
2022/06/14 05:59:05;;;;;;;11.30;6.97;;;16.90;99.90;;;;;;5063984;28;20456;-87
2022/06/14 06:01:36;;;;;;;14.93;7.97;;;17.00;99.90;;;;;;5063334;28;20462;-87
2022/06/14 06:04:10;;;;;;;11.03;6.93;;;17.00;99.90;;;;;;5062178;28;20476;-88
2022/06/14 06:06:43;;;;;;;13.37;7.90;;;17.20;99.90;;;;;;5064125;28;20477;-88
2022/06/14 06:09:13;;;;;;;13.00;7.47;;;17.30;99.90;;;;;;5065303;28;20463;-87
2022/06/14 06:11:48;;;;;;;18.50;10.40;;;17.60;99.90;;;;;;5063286;28;20477;-87
2022/06/14 06:14:19;;;;;;;11.57;7.50;;;17.40;99.90;;;;;;5062863;28;20456;-87
2022/06/14 06:16:50;;;;;;;10.83;7.53;;;17.50;99.90;;;;;;5062159;28;20440;-89
2022/06/14 06:30:39;;;;;;;12.97;9.63;;;17.80;99.90;;;;;;5072034;22;20492;-89
2022/06/14 06:33:10;;;;;;;15.10;7.10;;;18.00;99.90;;;;;;5038914;28;20493;-89
2022/06/14 06:42:39;;;;;;;16.43;7.63;;;18.10;99.90;;;;;;5334426;22;20491;-88
2022/06/14 06:45:11;;;;;;;13.70;7.87;;;18.10;99.90;;;;;;5054758;28;20450;-86
2022/06/14 06:47:45;;;;;;;12.53;6.87;;;18.20;99.90;;;;;;5061250;28;20409;-85
2022/06/14 06:50:27;;;;;;;9.30;6.70;;;18.30;99.90;;;;;;5061197;28;20456;-86
2022/06/14 06:53:09;;;;;;;11.77;7.23;;;18.30;99.90;;;;;;5062950;28;20538;-89
2022/06/14 06:55:49;;;;;;;15.83;6.77;;;18.30;99.90;;;;;;5061040;28;20499;-88
2022/06/14 07:01:46;;;;;;;12.80;6.77;;;18.30;99.90;;;;;;5072477;28;20469;-87
2022/06/14 07:10:51;;;;;;;14.70;6.93;;;18.80;99.90;;;;;;4934376;28;20463;-88
2022/06/14 07:17:08;;;;;;;10.83;6.80;;;19.00;99.90;;;;;;5020324;28;20422;-88
2022/06/14 07:19:43;;;;;;;13.13;6.73;;;19.10;99.90;;;;;;5021070;28;20561;-87
2022/06/14 07:34:59;;;;;;;15.13;7.70;;;19.40;99.90;;;;;;5038696;28;20488;-90
2022/06/14 07:37:48;;;;;;;15.53;7.33;;;19.50;99.90;;;;;;5056714;28;20452;-87
2022/06/14 07:40:20;;;;;;;13.53;7.27;;;19.60;99.90;;;;;;5062736;28;20537;-88
2022/06/14 07:42:59;;;;;;;10.30;6.40;;;19.70;99.90;;;;;;5063540;28;20997;-88
2022/06/14 07:45:33;;;;;;;11.93;6.70;;;19.80;99.90;;;;;;5076532;28;20469;-88
2022/06/14 07:48:08;;;;;;;8.47;6.67;;;19.90;99.90;;;;;;5072640;28;20505;-88
2022/06/14 07:50:40;;;;;;;11.00;6.63;;;19.90;99.90;;;;;;5070386;28;20468;-88
2022/06/14 07:53:58;;;;;;;19.70;10.17;;;20.00;99.90;;;;;;5070431;28;20473;-88
2022/06/14 07:56:31;;;;;;;14.17;7.03;;;19.90;99.90;;;;;;5074041;28;20560;-87
2022/06/14 07:59:05;;;;;;;12.80;6.30;;;20.00;99.60;;;;;;5072730;28;20456;-87
2022/06/14 08:01:38;;;;;;;10.67;6.60;;;20.00;99.50;;;;;;5072444;28;20480;-87
2022/06/14 08:04:13;;;;;;;9.30;6.07;;;20.20;99.20;;;;;;5070862;28;20446;-86
2022/06/14 08:06:43;;;;;;;17.80;6.70;;;20.40;99.00;;;;;;5064044;28;20409;-87
2022/06/14 08:09:19;;;;;;;12.30;7.23;;;20.60;98.80;;;;;;5075905;28;20437;-88
2022/06/14 08:11:49;;;;;;;13.20;6.37;;;20.60;98.50;;;;;;5078308;28;20481;-87
2022/06/14 08:14:27;;;;;;;13.80;6.70;;;20.70;98.40;;;;;;5069207;28;20480;-88
2022/06/14 08:19:49;;;;;;;11.93;6.90;;;20.70;98.00;;;;;;5053884;28;20531;-88
2022/06/14 08:22:23;;;;;;;10.97;6.87;;;20.70;97.80;;;;;;5061389;28;20984;-89
2022/06/14 08:25:00;;;;;;;11.80;7.03;;;20.70;97.70;;;;;;5064833;28;20461;-88
2022/06/14 08:27:32;;;;;;;14.10;6.63;;;20.70;97.10;;;;;;5065485;28;20437;-88
2022/06/14 08:30:04;;;;;;;8.17;5.60;;;20.60;97.50;;;;;;5062648;28;20965;-87
2022/06/14 08:39:09;;;;;;;12.83;6.13;;;21.00;97.40;;;;;;5053089;28;20453;-88
2022/06/14 08:42:10;;;;;;;19.60;7.03;;;21.00;96.60;;;;;;5059404;28;20477;-87
2022/06/14 08:44:49;;;;;;;11.80;5.90;;;21.00;96.70;;;;;;5060677;28;20804;-88
2022/06/14 08:47:40;;;;;;;8.33;5.23;;;20.90;96.30;;;;;;5065350;28;20464;-88
2022/06/14 08:50:24;;;;;;;9.60;5.07;;;20.90;96.30;;;;;;5060413;28;20441;-88
2022/06/14 08:53:44;;;;;;;11.07;6.50;;;20.90;96.70;;;;;;5065200;28;20512;-89
2022/06/14 08:56:23;;;;;;;8.73;6.10;;;21.00;96.70;;;;;;5055818;28;20445;-87
2022/06/14 08:59:39;;;;;;;12.17;6.80;;;21.20;96.00;;;;;;5064900;28;20507;-88
2022/06/14 09:02:38;;;;;;;10.10;6.93;;;21.10;96.20;;;;;;5065741;28;20496;-87
2022/06/14 09:05:47;;;;;;;8.87;5.27;;;21.20;96.10;;;;;;5061395;28;20520;-87
2022/06/14 09:08:58;;;;;;;6.93;5.20;;;21.40;95.30;;;;;;5063095;28;20453;-87
2022/06/14 09:12:17;;;;;;;9.60;4.70;;;21.60;94.90;;;;;;5062943;28;20501;-88
2022/06/14 09:15:26;;;;;;;10.53;5.30;;;21.40;94.50;;;;;;5043737;28;20590;-87
2022/06/14 09:21:46;;;;;;;10.70;5.17;;;21.60;94.30;;;;;;5061932;28;20989;-88
2022/06/14 09:24:42;;;;;;;8.40;5.30;;;21.70;93.90;;;;;;5071004;28;20468;-88
2022/06/14 09:27:20;;;;;;;10.10;5.17;;;21.90;93.50;;;;;;5061125;28;20429;-89
2022/06/14 09:30:10;;;;;;;8.40;4.93;;;22.00;92.60;;;;;;5061264;28;20461;-86
2022/06/14 09:33:14;;;;;;;11.40;4.97;;;22.10;91.90;;;;;;5063984;28;20481;-89
2022/06/14 09:36:01;;;;;;;9.97;5.00;;;22.10;91.80;;;;;;5062332;28;20543;-89
2022/06/14 09:38:59;;;;;;;15.20;6.17;;;22.10;92.10;;;;;;5063114;28;20445;-88
2022/06/14 09:41:49;;;;;;;8.47;4.97;;;22.30;91.80;;;;;;5033411;28;20477;-89
2022/06/14 09:44:45;;;;;;;11.30;6.20;;;22.30;90.70;;;;;;5063314;28;20524;-88
2022/06/14 09:47:34;;;;;;;10.57;4.70;;;22.50;88.80;;;;;;5062031;28;20457;-88
2022/06/14 09:54:21;;;;;;;7.77;4.57;;;22.80;88.40;;;;;;5053775;28;20552;-87
2022/06/14 09:57:05;;;;;;;9.10;4.27;;;22.80;87.80;;;;;;5068902;28;20471;-87
2022/06/14 10:00:29;;;;;;;11.40;5.03;;;22.90;85.90;;;;;;5072151;28;20895;-88
2022/06/14 10:03:40;;;;;;;10.80;4.67;;;23.00;84.30;;;;;;5072504;28;20492;-87
2022/06/14 10:06:48;;;;;;;7.57;4.47;;;23.00;82.50;;;;;;5076442;28;20406;-87
2022/06/14 10:09:37;;;;;;;6.70;4.57;;;22.80;82.50;;;;;;5071618;28;20461;-88
2022/06/14 10:21:54;;;;;;;11.73;5.40;;;22.60;83.90;;;;;;5065164;28;20495;-88
2022/06/14 10:30:51;;;;;;;8.23;5.17;;;22.90;83.70;;;;;;5085778;22;20507;-83
2022/06/14 10:33:31;;;;;;;9.20;5.30;;;22.80;80.80;;;;;;5065048;28;20493;-84
2022/06/14 10:36:20;;;;;;;7.27;4.77;;;22.70;82.80;;;;;;5067456;28;20535;-85
2022/06/14 10:39:06;;;;;;;8.50;5.30;;;22.80;83.20;;;;;;5021477;28;20511;-85
2022/06/14 10:41:40;;;;;;;8.70;4.87;;;22.60;83.00;;;;;;5067393;28;20473;-83
2022/06/14 10:44:20;;;;;;;9.63;5.40;;;22.70;84.30;;;;;;5066148;28;20430;-84
2022/06/14 10:46:56;;;;;;;10.10;5.70;;;22.90;84.90;;;;;;5063546;28;20429;-84
2022/06/14 10:50:15;;;;;;;9.20;4.90;;;23.10;85.20;;;;;;5064253;28;20493;-84
2022/06/14 10:52:52;;;;;;;8.07;4.97;;;23.10;84.70;;;;;;4996638;28;20441;-83
2022/06/14 10:55:52;;;;;;;9.43;5.60;;;23.00;84.30;;;;;;4996719;28;20459;-85
2022/06/14 10:58:37;;;;;;;8.33;5.10;;;23.10;84.70;;;;;;5053029;28;20479;-85
2022/06/14 11:01:17;;;;;;;10.73;5.40;;;23.20;83.70;;;;;;5068281;28;20479;-84
2022/06/14 11:03:57;;;;;;;10.13;5.60;;;23.40;83.80;;;;;;5063931;28;20425;-84
2022/06/14 11:06:51;;;;;;;11.90;5.57;;;23.60;80.90;;;;;;5064719;28;20444;-83
2022/06/14 11:09:31;;;;;;;7.60;5.00;;;23.60;81.00;;;;;;5065079;28;20488;-83
2022/06/14 11:12:12;;;;;;;11.90;6.10;;;23.40;80.90;;;;;;5062798;28;20492;-84
2022/06/14 11:14:48;;;;;;;10.27;5.23;;;23.40;82.20;;;;;;5063653;28;20473;-84
2022/06/14 11:17:40;;;;;;;9.40;5.40;;;23.50;81.80;;;;;;5064241;28;20536;-83
2022/06/14 11:20:18;;;;;;;11.10;5.70;;;23.70;79.60;;;;;;5064101;28;20442;-85
2022/06/14 11:22:52;;;;;;;10.77;5.30;;;23.80;78.30;;;;;;5063887;28;20441;-84
2022/06/14 11:25:29;;;;;;;10.17;4.97;;;23.90;78.80;;;;;;5068805;28;20420;-84
2022/06/14 11:28:05;;;;;;;14.23;5.37;;;24.00;78.40;;;;;;5067418;28;20466;-84
2022/06/14 11:30:44;;;;;;;9.80;5.27;;;23.80;77.40;;;;;;5057121;28;20555;-84
2022/06/14 11:33:20;;;;;;;8.37;5.47;;;24.00;77.70;;;;;;5061584;28;20522;-84
2022/06/14 11:36:09;;;;;;;8.20;5.13;;;24.00;76.90;;;;;;5063091;28;20615;-84
2022/06/14 11:39:03;;;;;;;12.83;5.27;;;24.00;78.20;;;;;;5064076;28;20517;-83
2022/06/14 11:41:35;;;;;;;10.33;4.60;;;24.10;77.50;;;;;;5065856;28;20472;-84
2022/06/14 11:44:19;;;;;;;8.70;5.43;;;24.00;76.60;;;;;;5062401;28;20910;-84
2022/06/14 11:46:56;;;;;;;8.33;4.67;;;24.10;76.50;;;;;;5064057;28;20517;-84
2022/06/14 11:49:28;;;;;;;7.27;4.70;;;24.40;75.60;;;;;;5065012;28;20464;-84
2022/06/14 11:52:03;;;;;;;7.90;4.40;;;24.30;73.50;;;;;;5062800;28;20465;-83
2022/06/14 11:54:38;;;;;;;8.17;5.27;;;24.10;74.60;;;;;;5061835;28;20480;-83
2022/06/14 11:57:20;;;;;;;10.23;5.50;;;24.10;74.10;;;;;;5063769;28;20513;-83
2022/06/14 12:00:09;;;;;;;7.83;5.30;;;24.10;73.60;;;;;;5063990;28;20417;-83
2022/06/14 12:02:46;;;;;;;7.40;4.30;;;24.20;73.70;;;;;;5063354;28;20441;-83
2022/06/14 12:05:32;;;;;;;8.67;4.80;;;24.00;71.50;;;;;;5064335;28;20464;-83
2022/06/14 12:08:06;;;;;;;7.63;5.07;;;23.90;71.70;;;;;;5064624;28;20468;-83
2022/06/14 12:10:47;;;;;;;7.17;3.90;;;24.00;71.00;;;;;;5067863;28;20477;-83
2022/06/14 12:13:32;;;;;;;7.33;4.30;;;23.90;71.00;;;;;;5066189;28;20944;-83
2022/06/14 12:16:04;;;;;;;7.00;4.23;;;23.90;72.10;;;;;;5061898;28;20516;-83
2022/06/14 12:18:37;;;;;;;8.63;4.70;;;24.20;72.80;;;;;;5066308;28;20444;-83
2022/06/14 12:21:11;;;;;;;9.23;5.20;;;24.50;71.90;;;;;;5062637;28;20870;-83
2022/06/14 12:23:45;;;;;;;9.93;5.40;;;24.50;71.00;;;;;;5062543;28;20512;-83
2022/06/14 12:26:35;;;;;;;7.90;4.50;;;24.60;71.40;;;;;;5061659;28;20443;-83
2022/06/14 12:29:11;;;;;;;6.83;4.33;;;24.70;70.10;;;;;;5068092;28;20480;-84
2022/06/14 12:31:47;;;;;;;6.77;4.17;;;24.80;69.40;;;;;;5071033;28;20501;-83
2022/06/14 12:34:22;;;;;;;7.90;5.07;;;24.90;69.00;;;;;;5076937;28;20484;-83
2022/06/14 12:36:57;;;;;;;8.80;4.57;;;25.10;66.70;;;;;;5078488;28;20445;-82
2022/06/14 12:39:28;;;;;;;6.50;4.33;;;25.10;65.20;;;;;;5079417;28;20444;-83
2022/06/14 12:42:03;;;;;;;6.50;4.17;;;25.10;64.00;;;;;;5079562;28;20472;-82
2022/06/14 12:44:42;;;;;;;9.27;4.20;;;25.20;64.10;;;;;;5073904;28;20443;-82
2022/06/14 12:47:17;;;;;;;8.13;4.13;;;25.20;63.70;;;;;;5066131;28;20508;-82
2022/06/14 12:49:50;;;;;;;6.57;4.20;;;25.20;64.30;;;;;;5064832;28;20443;-83
2022/06/14 12:52:25;;;;;;;6.30;4.50;;;25.30;64.10;;;;;;5065295;28;20564;-83
2022/06/14 12:54:59;;;;;;;5.57;4.03;;;25.10;64.80;;;;;;5065526;28;20465;-83
2022/06/14 12:57:38;;;;;;;7.27;4.67;;;25.20;64.30;;;;;;5066745;28;20449;-83
2022/06/14 13:00:24;;;;;;;7.67;4.53;;;25.20;64.90;;;;;;5065412;28;20437;-84
2022/06/14 13:03:00;;;;;;;6.03;4.23;;;25.20;65.10;;;;;;5072704;28;20516;-84
2022/06/14 13:05:42;;;;;;;6.00;4.00;;;25.30;64.90;;;;;;5069144;28;20433;-84
2022/06/14 13:08:22;;;;;;;6.50;4.10;;;25.30;63.70;;;;;;5068505;28;20433;-84
2022/06/14 13:10:59;;;;;;;5.50;3.93;;;25.40;62.50;;;;;;5078074;28;20514;-82
2022/06/14 13:13:41;;;;;;;9.83;4.33;;;25.30;61.30;;;;;;5074738;28;20415;-83
2022/06/14 13:16:15;;;;;;;10.83;4.10;;;25.40;61.70;;;;;;5065451;28;20421;-83
2022/06/14 13:18:53;;;;;;;8.00;4.00;;;25.50;61.40;;;;;;5065429;28;20425;-83
2022/06/14 13:21:34;;;;;;;7.73;4.40;;;25.60;60.50;;;;;;5065468;28;20879;-83
2022/06/14 13:24:13;;;;;;;5.90;4.27;;;25.50;61.50;;;;;;5065130;28;20452;-83
2022/06/14 13:26:51;;;;;;;12.43;4.23;;;25.40;61.60;;;;;;5064953;28;20432;-84
2022/06/14 13:29:39;;;;;;;7.70;3.73;;;25.50;62.30;;;;;;5065072;28;20494;-83
2022/06/14 13:32:33;;;;;;;7.27;4.20;;;25.50;62.30;;;;;;5062610;28;20913;-83
2022/06/14 13:35:26;;;;;;;6.60;3.90;;;25.50;61.80;;;;;;5065506;28;20465;-84
2022/06/14 13:38:00;;;;;;;8.67;4.17;;;25.70;61.70;;;;;;5070463;28;20995;-82
2022/06/14 13:40:33;;;;;;;7.80;4.40;;;26.00;61.00;;;;;;5070741;28;20536;-82
2022/06/14 13:43:09;;;;;;;7.37;3.80;;;26.10;58.50;;;;;;5063717;28;20437;-82
2022/06/14 13:45:41;;;;;;;8.50;3.90;;;26.10;57.30;;;;;;5064294;28;20437;-82
2022/06/14 13:48:17;;;;;;;7.70;4.37;;;26.00;58.20;;;;;;5064031;28;20460;-82
2022/06/14 13:50:51;;;;;;;10.07;4.33;;;26.00;58.60;;;;;;5064273;28;20473;-83
2022/06/14 13:53:25;;;;;;;6.80;4.00;;;26.10;58.10;;;;;;5064721;28;20452;-83
2022/06/14 13:56:00;;;;;;;5.80;3.73;;;26.10;57.50;;;;;;5063914;28;20985;-83
2022/06/14 13:58:34;;;;;;;5.70;4.00;;;26.10;56.70;;;;;;5067947;28;20483;-83
2022/06/14 14:01:07;;;;;;;9.27;4.10;;;26.10;56.90;;;;;;5065306;28;20473;-83
2022/06/14 14:03:42;;;;;;;6.60;3.60;;;26.40;54.80;;;;;;5065228;28;20437;-83
2022/06/14 14:06:16;;;;;;;5.33;3.33;;;26.60;54.30;;;;;;5065560;28;20433;-83
2022/06/14 14:08:57;;;;;;;10.07;4.43;;;26.80;55.50;;;;;;5071980;28;20509;-83
2022/06/14 14:11:33;;;;;;;6.90;3.97;;;26.90;55.80;;;;;;5064962;28;20473;-83
2022/06/14 14:14:08;;;;;;;6.03;4.10;;;27.10;55.00;;;;;;5066199;28;20429;-83
2022/06/14 14:16:41;;;;;;;6.33;4.37;;;27.00;54.70;;;;;;5069652;28;20425;-83
2022/06/14 14:19:25;;;;;;;6.47;3.83;;;27.00;54.80;;;;;;5065832;28;20505;-83
2022/06/14 14:21:58;;;;;;;5.93;3.60;;;27.00;55.50;;;;;;5059912;28;20556;-83
2022/06/14 14:24:35;;;;;;;8.63;4.10;;;27.40;55.20;;;;;;5058236;28;20430;-83
2022/06/14 14:27:08;;;;;;;5.80;3.93;;;27.60;54.30;;;;;;5063783;28;20452;-83
2022/06/14 14:29:40;;;;;;;5.60;3.93;;;27.90;52.90;;;;;;5074270;28;20422;-83
2022/06/14 14:32:15;;;;;;;7.33;4.13;;;28.20;52.10;;;;;;5076331;28;20477;-83
2022/06/14 14:34:46;;;;;;;6.20;4.00;;;28.40;52.20;;;;;;5069823;28;20472;-85
2022/06/14 14:37:17;;;;;;;5.80;3.80;;;28.40;52.50;;;;;;5064218;28;20429;-83
2022/06/14 14:40:15;;;;;;;6.27;4.40;;;28.50;51.60;;;;;;5063612;28;20524;-84
2022/06/14 14:43:02;;;;;;;5.33;3.90;;;28.40;51.30;;;;;;5064494;28;20468;-84
2022/06/14 14:45:39;;;;;;;7.20;4.40;;;28.70;51.60;;;;;;5065090;28;20434;-84
2022/06/14 14:48:15;;;;;;;9.33;4.00;;;28.90;51.00;;;;;;5063625;28;20547;-83
2022/06/14 14:50:46;;;;;;;6.63;3.83;;;28.80;49.70;;;;;;5063401;28;20469;-84
2022/06/14 14:53:20;;;;;;;5.47;3.60;;;28.80;47.10;;;;;;5071011;28;20442;-83
2022/06/14 14:55:57;;;;;;;6.10;4.00;;;29.20;45.20;;;;;;5077677;28;20467;-83
2022/06/14 14:58:31;;;;;;;4.70;3.53;;;29.20;46.30;;;;;;5075443;28;20433;-83
2022/06/14 15:06:47;;;;;;;8.00;5.20;;;29.80;44.80;;;;;;5063862;28;20456;-84
2022/06/14 15:09:18;;;;;;;10.67;9.10;;;30.10;43.50;;;;;;5061424;28;20512;-84
2022/06/14 15:11:54;;;;;;;8.80;3.80;;;30.20;43.70;;;;;;5062023;28;20500;-84
2022/06/14 15:14:25;;;;;;;6.07;3.67;;;30.10;43.30;;;;;;5064592;28;20433;-84
2022/06/14 15:19:57;;;;;;;5.80;3.80;;;30.10;44.30;;;;;;5061141;28;20421;-84
2022/06/14 15:22:30;;;;;;;5.97;4.00;;;30.30;44.10;;;;;;5060778;28;20556;-84
2022/06/14 15:25:02;;;;;;;7.80;4.23;;;30.10;43.70;;;;;;5062739;28;20784;-83
2022/06/14 15:27:42;;;;;;;5.40;4.20;;;29.70;44.60;;;;;;5072645;28;20433;-83
2022/06/14 15:30:13;;;;;;;7.70;3.63;;;29.60;45.50;;;;;;5072509;28;20453;-83
2022/06/14 15:32:41;;;;;;;7.13;3.80;;;29.70;44.60;;;;;;5070268;28;20516;-83
2022/06/14 15:35:22;;;;;;;4.80;3.40;;;29.30;45.40;;;;;;5061461;28;20538;-84
2022/06/14 15:38:05;;;;;;;8.27;3.27;;;29.60;45.30;;;;;;5061701;28;20468;-84
2022/06/14 15:40:32;;;;;;;5.57;3.73;;;29.90;41.30;;;;;;5060865;28;20529;-83
2022/06/14 15:43:16;;;;;;;6.03;3.30;;;30.30;41.70;;;;;;5062087;28;20453;-84
2022/06/14 15:45:46;;;;;;;4.90;3.17;;;30.40;41.80;;;;;;5069003;28;20493;-84
2022/06/14 15:48:29;;;;;;;5.00;3.80;;;29.80;43.60;;;;;;5069525;28;20422;-84
2022/06/14 15:50:59;;;;;;;6.00;3.90;;;30.00;44.00;;;;;;5075719;28;20469;-84
2022/06/14 15:53:37;;;;;;;5.60;3.80;;;30.20;44.00;;;;;;5066637;28;20442;-84
2022/06/14 15:56:07;;;;;;;6.20;4.10;;;30.20;44.00;;;;;;5062622;28;20540;-84
2022/06/14 15:58:42;;;;;;;8.80;3.87;;;30.30;43.90;;;;;;5066625;28;20472;-84
2022/06/14 16:01:19;;;;;;;6.40;4.40;;;30.60;43.10;;;;;;5061444;28;20970;-83
2022/06/14 16:03:57;;;;;;;5.50;3.90;;;30.90;43.10;;;;;;5066063;28;20453;-83
2022/06/14 16:06:32;;;;;;;7.77;4.30;;;31.00;42.80;;;;;;5078548;28;20433;-84
2022/06/14 16:09:03;;;;;;;7.07;4.37;;;31.10;43.00;;;;;;5073593;28;20429;-83
2022/06/14 16:11:41;;;;;;;6.00;3.90;;;31.20;42.90;;;;;;5066805;28;20461;-82
2022/06/14 16:14:12;;;;;;;6.30;4.50;;;30.80;43.10;;;;;;5068668;28;20465;-83
2022/06/14 16:16:42;;;;;;;5.67;3.80;;;30.60;43.10;;;;;;5069243;28;20468;-83
2022/06/14 16:19:28;;;;;;;6.77;3.63;;;30.50;42.70;;;;;;5069169;28;20437;-84
2022/06/14 16:22:03;;;;;;;6.83;3.90;;;29.80;42.50;;;;;;5067039;28;20464;-83